Time;durP1;ratioP1;P1;durP2;ratioP2;P2;SDS_P1;SDS_P2;PMS_P1;PMS_P2;Temp;Humidity;BMP_temperature;BMP_pressure;BME280_temperature;BME280_humidity;BME280_pressure;Samples;Min_cycle;Max_cycle;Signal;HPM_P1;HPM_P2
2021/06/09 00:02:05;;;;;;;13.70;7.77;;;19.40;99.90;;;;;;4870998;29;20701;-75
2021/06/09 00:04:31;;;;;;;16.50;7.97;;;19.30;99.90;;;;;;4868287;29;20201;-76
2021/06/09 00:06:57;;;;;;;13.47;8.13;;;19.10;99.90;;;;;;4854729;29;20226;-76
2021/06/09 00:09:23;;;;;;;10.97;7.50;;;19.00;99.90;;;;;;4870674;29;20181;-76
2021/06/09 00:11:49;;;;;;;14.80;8.27;;;18.90;99.90;;;;;;4874109;29;20189;-77
2021/06/09 00:14:16;;;;;;;12.90;8.00;;;19.00;99.90;;;;;;4872686;29;20191;-76
2021/06/09 00:16:44;;;;;;;14.43;7.87;;;18.90;99.90;;;;;;4871579;29;20273;-76
2021/06/09 00:19:11;;;;;;;12.30;7.90;;;18.90;99.90;;;;;;4851992;29;20693;-76
2021/06/09 00:21:36;;;;;;;12.60;8.03;;;18.90;99.90;;;;;;4868164;29;20217;-77
2021/06/09 00:24:03;;;;;;;12.90;7.93;;;18.90;99.90;;;;;;4863725;29;20209;-76
2021/06/09 00:26:28;;;;;;;15.70;7.67;;;18.90;99.90;;;;;;4873451;29;20219;-75
2021/06/09 00:28:54;;;;;;;12.43;7.97;;;18.90;99.90;;;;;;4859062;29;20267;-75
2021/06/09 00:31:20;;;;;;;12.20;8.03;;;18.80;99.90;;;;;;4880960;29;20543;-76
2021/06/09 00:33:46;;;;;;;14.53;8.20;;;18.80;99.90;;;;;;4867140;29;20198;-75
2021/06/09 00:36:12;;;;;;;11.93;8.03;;;18.70;99.90;;;;;;4851432;29;20202;-76
2021/06/09 00:38:38;;;;;;;12.30;8.43;;;18.60;99.90;;;;;;4870360;29;20198;-76
2021/06/09 00:41:07;;;;;;;12.40;8.53;;;18.60;99.90;;;;;;4871477;29;20247;-76
2021/06/09 00:43:34;;;;;;;12.87;7.97;;;18.60;99.90;;;;;;4873509;29;20187;-75
2021/06/09 00:46:08;;;;;;;12.43;8.27;;;18.50;99.90;;;;;;4865697;29;20205;-75
2021/06/09 00:48:36;;;;;;;14.90;8.80;;;18.30;99.90;;;;;;4871697;29;20259;-75
2021/06/09 00:51:16;;;;;;;14.83;8.50;;;18.30;99.90;;;;;;4864235;29;20555;-76
2021/06/09 00:53:49;;;;;;;14.57;8.80;;;18.20;99.90;;;;;;4869680;29;20556;-75
2021/06/09 00:56:17;;;;;;;13.97;8.63;;;18.20;99.90;;;;;;4873843;29;20594;-75
2021/06/09 00:58:44;;;;;;;13.10;8.43;;;18.10;99.90;;;;;;4871505;29;20194;-75
2021/06/09 01:01:12;;;;;;;11.73;8.23;;;18.00;99.90;;;;;;4870670;29;20601;-75
2021/06/09 01:03:39;;;;;;;14.73;8.60;;;17.90;99.90;;;;;;4870328;29;20191;-75
2021/06/09 01:06:06;;;;;;;13.83;9.47;;;17.80;99.90;;;;;;4873509;29;20178;-75
2021/06/09 01:08:36;;;;;;;12.97;9.10;;;17.80;99.90;;;;;;4853002;29;20199;-75
2021/06/09 01:11:05;;;;;;;15.07;8.67;;;17.80;99.90;;;;;;4870603;29;20194;-74
2021/06/09 01:13:31;;;;;;;14.27;8.47;;;17.80;99.90;;;;;;4869590;29;20190;-74
2021/06/09 01:15:58;;;;;;;12.33;7.93;;;17.70;99.90;;;;;;4866051;29;20273;-74
2021/06/09 01:18:25;;;;;;;15.43;8.73;;;17.70;99.90;;;;;;4869886;29;20198;-74
2021/06/09 01:20:51;;;;;;;16.23;9.07;;;17.70;99.90;;;;;;4872237;29;20180;-74
2021/06/09 01:23:17;;;;;;;14.50;9.27;;;17.70;99.90;;;;;;4856233;29;20736;-75
2021/06/09 01:25:44;;;;;;;15.40;9.50;;;17.70;99.90;;;;;;4872100;29;20243;-75
2021/06/09 01:28:10;;;;;;;14.67;9.20;;;17.70;99.90;;;;;;4869092;29;20195;-76
2021/06/09 01:30:37;;;;;;;14.57;8.70;;;17.60;99.90;;;;;;4863513;29;20202;-76
2021/06/09 01:33:07;;;;;;;12.37;8.77;;;17.60;99.90;;;;;;4854209;29;20211;-75
2021/06/09 01:35:33;;;;;;;15.17;9.37;;;17.60;99.90;;;;;;4849590;29;20607;-75
2021/06/09 01:37:59;;;;;;;13.50;8.70;;;17.60;99.90;;;;;;4868490;29;20191;-76
2021/06/09 01:40:27;;;;;;;12.60;9.00;;;17.50;99.90;;;;;;4871983;29;20274;-74
2021/06/09 01:42:53;;;;;;;14.67;9.10;;;17.40;99.90;;;;;;4871771;29;20213;-75
2021/06/09 01:45:23;;;;;;;15.43;8.93;;;17.40;99.90;;;;;;4858205;29;20269;-75
2021/06/09 01:47:50;;;;;;;15.53;9.20;;;17.50;99.90;;;;;;4870641;29;20635;-75
2021/06/09 01:50:17;;;;;;;14.43;9.13;;;17.50;99.90;;;;;;4848735;29;20279;-75
2021/06/09 01:52:44;;;;;;;12.30;8.60;;;17.40;99.90;;;;;;4871725;29;20195;-75
2021/06/09 01:55:12;;;;;;;15.10;8.57;;;17.40;99.90;;;;;;4866872;29;20237;-75
2021/06/09 01:57:39;;;;;;;15.40;9.70;;;17.40;99.90;;;;;;4856329;29;20278;-75
2021/06/09 02:00:16;;;;;;;15.03;9.63;;;17.40;99.90;;;;;;4871087;29;21059;-74
2021/06/09 02:02:42;;;;;;;12.87;9.23;;;17.40;99.90;;;;;;4867372;29;20218;-74
2021/06/09 02:05:10;;;;;;;16.33;9.60;;;17.20;99.90;;;;;;4871117;29;20209;-74
2021/06/09 02:07:44;;;;;;;16.40;10.13;;;17.10;99.90;;;;;;4868709;29;20194;-75
2021/06/09 02:10:15;;;;;;;17.43;10.00;;;17.10;99.90;;;;;;4868822;29;20222;-76
2021/06/09 02:12:45;;;;;;;15.33;10.03;;;17.20;99.90;;;;;;4842000;29;20270;-75
2021/06/09 02:15:12;;;;;;;14.40;10.27;;;17.10;99.90;;;;;;4871079;29;20195;-75
2021/06/09 02:17:41;;;;;;;16.27;11.20;;;17.00;99.90;;;;;;4870039;29;20254;-76
2021/06/09 02:20:09;;;;;;;17.93;11.33;;;16.90;99.90;;;;;;4870944;29;20193;-75
2021/06/09 02:22:36;;;;;;;16.83;11.53;;;16.90;99.90;;;;;;4872506;29;20242;-75
2021/06/09 02:25:07;;;;;;;17.20;11.57;;;16.90;99.90;;;;;;4873656;29;20223;-75
2021/06/09 02:27:34;;;;;;;18.50;12.03;;;16.80;99.90;;;;;;4867841;29;20193;-76
2021/06/09 02:30:00;;;;;;;15.77;11.63;;;16.80;99.90;;;;;;4858246;29;20815;-75
2021/06/09 02:32:26;;;;;;;25.63;12.13;;;16.70;99.90;;;;;;4881388;29;20227;-75
2021/06/09 02:34:52;;;;;;;14.30;10.67;;;16.70;99.90;;;;;;4844316;29;20201;-75
2021/06/09 02:37:21;;;;;;;15.53;10.73;;;16.70;99.90;;;;;;4875659;29;20560;-75
2021/06/09 02:39:46;;;;;;;14.00;10.50;;;16.60;99.90;;;;;;4874098;29;20668;-74
2021/06/09 02:42:20;;;;;;;19.57;11.67;;;16.60;99.90;;;;;;4871203;29;20270;-75
2021/06/09 02:44:47;;;;;;;18.23;12.20;;;16.60;99.90;;;;;;4867096;29;20277;-76
2021/06/09 02:47:15;;;;;;;16.33;11.53;;;16.60;99.90;;;;;;4876273;29;20191;-75
2021/06/09 02:49:42;;;;;;;16.63;11.13;;;16.70;99.90;;;;;;4873448;29;20219;-76
2021/06/09 02:52:16;;;;;;;18.40;11.53;;;16.80;99.90;;;;;;4875749;29;20207;-75
2021/06/09 02:55:02;;;;;;;21.30;12.87;;;16.70;99.90;;;;;;4869375;29;20203;-75
2021/06/09 02:57:36;;;;;;;17.07;11.93;;;16.70;99.90;;;;;;4868416;29;20190;-75
2021/06/09 03:00:07;;;;;;;18.13;12.70;;;16.60;99.90;;;;;;4851039;29;20281;-76
2021/06/09 03:02:51;;;;;;;16.10;12.37;;;16.70;99.90;;;;;;4872982;29;20219;-75
2021/06/09 03:05:32;;;;;;;16.80;11.87;;;16.70;99.90;;;;;;4866024;29;20179;-76
2021/06/09 03:08:24;;;;;;;20.20;13.23;;;16.70;99.90;;;;;;4876764;29;20207;-76
2021/06/09 03:11:05;;;;;;;19.23;12.90;;;16.70;99.90;;;;;;4872667;29;20190;-76
2021/06/09 03:14:15;;;;;;;18.77;12.47;;;16.70;99.90;;;;;;4876965;29;20206;-75
2021/06/09 03:16:53;;;;;;;18.73;12.93;;;16.60;99.90;;;;;;4860524;29;20185;-75
2021/06/09 03:19:23;;;;;;;19.00;13.03;;;16.50;99.90;;;;;;4871553;29;20198;-75
2021/06/09 03:22:03;;;;;;;20.27;13.37;;;16.50;99.90;;;;;;4873081;29;20778;-74
2021/06/09 03:24:36;;;;;;;21.47;14.57;;;16.50;99.90;;;;;;4860018;29;20207;-75
2021/06/09 03:27:08;;;;;;;23.47;14.07;;;16.60;99.90;;;;;;4867195;29;20559;-75
2021/06/09 03:29:47;;;;;;;24.87;14.37;;;16.70;99.90;;;;;;4872499;29;20318;-75
2021/06/09 03:32:24;;;;;;;21.77;13.80;;;16.60;99.90;;;;;;4868829;29;20193;-74
2021/06/09 03:35:10;;;;;;;20.83;14.87;;;16.50;99.90;;;;;;4862858;29;20246;-75
2021/06/09 03:37:41;;;;;;;21.33;14.27;;;16.50;99.90;;;;;;4869430;29;20198;-75
2021/06/09 03:40:12;;;;;;;22.57;14.50;;;16.40;99.90;;;;;;4873858;29;20250;-74
2021/06/09 03:42:42;;;;;;;23.17;15.40;;;16.40;99.90;;;;;;4865042;29;20709;-75
2021/06/09 03:45:08;;;;;;;25.70;16.33;;;16.50;99.90;;;;;;4868184;29;20195;-74
2021/06/09 03:47:35;;;;;;;24.93;17.07;;;16.60;99.90;;;;;;4850075;29;20203;-75
2021/06/09 03:50:03;;;;;;;23.37;15.70;;;16.70;99.90;;;;;;4872417;29;20251;-75
2021/06/09 03:52:30;;;;;;;27.07;16.13;;;16.70;99.90;;;;;;4875981;29;20253;-76
2021/06/09 03:54:58;;;;;;;25.50;16.80;;;16.60;99.90;;;;;;4881459;29;20669;-76
2021/06/09 03:57:25;;;;;;;25.63;17.07;;;16.70;99.90;;;;;;4849834;29;20222;-76
2021/06/09 03:59:54;;;;;;;22.90;16.30;;;16.60;99.90;;;;;;4856930;29;20653;-75
2021/06/09 04:02:23;;;;;;;22.37;16.40;;;16.70;99.90;;;;;;4865608;29;20214;-76
2021/06/09 04:04:53;;;;;;;23.30;16.20;;;16.80;99.90;;;;;;4876337;29;20280;-75
2021/06/09 04:07:21;;;;;;;23.77;16.00;;;17.00;99.90;;;;;;4867906;29;20201;-75
2021/06/09 04:09:48;;;;;;;23.87;15.50;;;17.00;99.90;;;;;;4872536;29;20181;-75
2021/06/09 04:12:15;;;;;;;23.77;15.43;;;17.10;99.90;;;;;;4869111;29;20607;-74
2021/06/09 04:14:44;;;;;;;27.83;16.77;;;17.10;99.90;;;;;;4874765;29;20194;-75
2021/06/09 04:17:12;;;;;;;23.90;16.10;;;17.10;99.90;;;;;;4874186;29;20194;-75
2021/06/09 04:19:42;;;;;;;22.80;16.10;;;17.20;99.90;;;;;;4876479;29;20710;-74
2021/06/09 04:22:08;;;;;;;23.87;15.93;;;17.30;99.90;;;;;;4873604;29;20204;-75
2021/06/09 04:24:40;;;;;;;19.53;14.37;;;17.50;99.90;;;;;;4868376;29;20679;-76
2021/06/09 04:27:11;;;;;;;20.70;15.53;;;17.60;99.90;;;;;;4871495;29;20185;-72
2021/06/09 04:29:37;;;;;;;21.57;15.30;;;17.90;99.90;;;;;;4845850;29;20194;-72
2021/06/09 04:32:06;;;;;;;21.40;15.13;;;18.20;99.90;;;;;;4871776;29;20187;-72
2021/06/09 04:34:43;;;;;;;20.87;15.10;;;18.30;99.90;;;;;;4869564;29;20273;-72
2021/06/09 04:37:09;;;;;;;23.97;15.17;;;18.50;99.90;;;;;;4868092;29;20239;-72
2021/06/09 04:39:37;;;;;;;22.63;15.17;;;18.50;99.90;;;;;;4852797;29;20208;-75
2021/06/09 04:42:05;;;;;;;20.53;15.07;;;18.60;99.90;;;;;;4872571;29;20221;-76
2021/06/09 04:44:33;;;;;;;24.10;15.83;;;18.60;99.90;;;;;;4873155;29;20219;-73
2021/06/09 04:46:59;;;;;;;23.00;16.10;;;18.60;99.90;;;;;;4869287;29;20187;-73
2021/06/09 04:49:37;;;;;;;25.57;16.93;;;18.70;99.90;;;;;;4867294;29;20222;-72
2021/06/09 04:52:28;;;;;;;25.33;16.77;;;18.90;99.90;;;;;;4870970;29;20258;-76
2021/06/09 04:54:54;;;;;;;26.97;17.93;;;19.10;99.90;;;;;;4870491;29;20176;-73
2021/06/09 04:57:19;;;;;;;26.77;18.17;;;19.20;99.90;;;;;;4870138;29;20677;-75
2021/06/09 04:59:45;;;;;;;27.73;19.40;;;19.60;99.90;;;;;;4868947;29;20213;-75
2021/06/09 05:02:11;;;;;;;29.43;19.27;;;19.70;99.90;;;;;;4869085;29;20341;-74
2021/06/09 05:04:36;;;;;;;29.80;19.00;;;20.00;99.90;;;;;;4869334;29;20230;-71
2021/06/09 05:07:02;;;;;;;25.80;18.57;;;20.30;99.90;;;;;;4869104;29;20226;-76
2021/06/09 05:09:29;;;;;;;28.13;18.30;;;20.50;99.90;;;;;;4875655;29;20235;-75
2021/06/09 05:12:13;;;;;;;27.10;18.07;;;20.80;99.90;;;;;;4870114;29;20218;-75
2021/06/09 05:14:48;;;;;;;27.03;18.73;;;21.10;99.90;;;;;;4856847;29;20240;-76
2021/06/09 05:17:16;;;;;;;25.13;18.37;;;21.50;99.90;;;;;;4854240;29;20300;-76
2021/06/09 05:19:44;;;;;;;24.93;17.57;;;21.90;99.90;;;;;;4871615;29;20241;-76
2021/06/09 05:22:33;;;;;;;26.67;17.70;;;22.40;99.90;;;;;;4865612;29;20205;-75
2021/06/09 05:25:06;;;;;;;25.83;19.00;;;22.70;99.90;;;;;;4870365;29;20218;-75
2021/06/09 05:27:32;;;;;;;29.10;20.93;;;22.80;99.90;;;;;;4865540;29;20190;-76
2021/06/09 05:29:59;;;;;;;26.97;18.10;;;23.00;99.90;;;;;;4870557;29;20187;-76
2021/06/09 05:32:28;;;;;;;27.77;18.80;;;23.10;99.90;;;;;;4871364;29;20644;-76
2021/06/09 05:34:56;;;;;;;25.17;18.17;;;23.40;99.90;;;;;;4866980;29;20197;-75
2021/06/09 05:37:22;;;;;;;28.57;21.63;;;23.60;99.90;;;;;;4871182;29;20205;-76
2021/06/09 05:39:49;;;;;;;31.23;21.67;;;23.90;99.90;;;;;;4860024;29;20209;-76
2021/06/09 05:42:16;;;;;;;32.80;23.87;;;24.20;99.90;;;;;;4871253;29;20610;-74
2021/06/09 05:44:48;;;;;;;34.73;24.43;;;24.60;99.90;;;;;;4855072;29;20749;-72
2021/06/09 05:47:13;;;;;;;38.30;27.87;;;25.00;99.90;;;;;;4873921;29;20230;-77
2021/06/09 05:49:39;;;;;;;59.27;42.90;;;25.40;99.90;;;;;;4872678;29;20226;-75
2021/06/09 05:52:06;;;;;;;55.60;42.08;;;25.60;99.90;;;;;;4863590;29;20676;-74
2021/06/09 05:54:37;;;;;;;57.80;41.37;;;25.50;99.90;;;;;;4869766;29;20187;-74
2021/06/09 05:57:04;;;;;;;54.63;42.67;;;26.00;99.90;;;;;;4873735;29;20273;-76
2021/06/09 05:59:30;;;;;;;48.87;38.93;;;26.50;99.90;;;;;;4869096;29;20234;-76
2021/06/09 06:01:56;;;;;;;55.70;41.72;;;27.00;99.90;;;;;;4867802;29;20214;-74
2021/06/09 06:04:22;;;;;;;62.47;44.17;;;26.60;99.90;;;;;;4852051;29;20662;-72
2021/06/09 06:06:49;;;;;;;57.15;44.10;;;26.90;99.90;;;;;;4869602;29;20659;-74
2021/06/09 06:09:16;;;;;;;64.30;45.13;;;26.60;99.90;;;;;;4869638;29;20182;-75
2021/06/09 06:11:43;;;;;;;62.17;46.00;;;25.70;99.90;;;;;;4866081;29;20294;-74
2021/06/09 06:14:11;;;;;;;62.28;46.65;;;25.70;99.90;;;;;;4854403;29;20193;-73
2021/06/09 06:16:39;;;;;;;61.47;43.92;;;26.50;99.90;;;;;;4857063;29;20183;-72
2021/06/09 06:19:05;;;;;;;62.72;46.50;;;26.70;99.90;;;;;;4867340;29;20651;-74
2021/06/09 06:21:31;;;;;;;61.10;46.08;;;26.90;99.90;;;;;;4876487;29;20659;-75
2021/06/09 06:23:57;;;;;;;58.95;46.10;;;26.60;99.90;;;;;;4871975;29;20452;-74
2021/06/09 06:26:25;;;;;;;59.28;46.88;;;25.90;99.90;;;;;;4876628;29;20211;-74
2021/06/09 06:28:52;;;;;;;58.70;44.65;;;26.30;99.90;;;;;;4872704;29;20187;-74
2021/06/09 06:31:27;;;;;;;61.28;45.38;;;26.70;99.90;;;;;;4853643;29;20203;-75
2021/06/09 06:33:58;;;;;;;57.88;43.63;;;27.30;99.90;;;;;;4858508;29;20206;-75
2021/06/09 06:36:26;;;;;;;59.95;43.55;;;27.90;99.90;;;;;;4877244;29;20186;-72
2021/06/09 06:38:52;;;;;;;56.55;43.30;;;27.60;99.90;;;;;;4854190;29;20183;-74
2021/06/09 06:41:19;;;;;;;58.10;41.42;;;27.30;99.90;;;;;;4859666;29;20198;-75
2021/06/09 06:43:45;;;;;;;55.28;41.95;;;27.20;99.90;;;;;;4876959;29;20183;-75
2021/06/09 06:46:18;;;;;;;57.22;41.28;;;26.50;99.90;;;;;;4871628;29;20749;-75
2021/06/09 06:48:48;;;;;;;51.50;40.75;;;27.40;99.90;;;;;;4872473;29;20289;-72
2021/06/09 06:51:16;;;;;;;55.22;41.20;;;28.20;99.90;;;;;;4873867;29;20226;-75
2021/06/09 06:53:44;;;;;;;52.05;37.15;;;28.70;99.90;;;;;;4868506;29;20190;-76
2021/06/09 06:56:12;;;;;;;48.92;37.55;;;29.20;99.90;;;;;;4872471;29;20183;-75
2021/06/09 06:58:58;;;;;;;48.05;36.17;;;28.40;98.70;;;;;;4870197;29;20679;-76
2021/06/09 07:01:33;;;;;;;46.83;36.25;;;28.40;99.50;;;;;;4871497;29;20203;-73
2021/06/09 07:04:00;;;;;;;42.55;34.15;;;28.60;99.10;;;;;;4878565;29;20241;-74
2021/06/09 07:06:27;;;;;;;40.83;33.58;;;28.80;97.40;;;;;;4876170;29;20179;-72
2021/06/09 07:08:53;;;;;;;41.83;32.85;;;28.50;97.20;;;;;;4870044;29;20671;-72
2021/06/09 07:11:28;;;;;;;41.92;32.75;;;29.40;97.60;;;;;;4867280;29;20197;-74
2021/06/09 07:13:57;;;;;;;44.25;32.40;;;29.40;97.00;;;;;;4874591;29;20183;-74
2021/06/09 07:16:29;;;;;;;40.15;31.80;;;29.80;94.80;;;;;;4856630;29;20214;-72
2021/06/09 07:18:59;;;;;;;40.50;30.98;;;30.40;95.10;;;;;;4870084;29;20196;-73
2021/06/09 07:21:25;;;;;;;38.90;30.85;;;31.10;92.70;;;;;;4869546;29;20658;-72
2021/06/09 07:23:52;;;;;;;42.78;32.85;;;31.80;92.20;;;;;;4874663;29;20187;-73
2021/06/09 07:26:19;;;;;;;36.45;27.52;;;32.40;91.00;;;;;;4871937;29;20321;-73
2021/06/09 07:28:49;;;;;;;32.72;26.15;;;32.70;86.90;;;;;;4858975;29;21619;-77
2021/06/09 07:31:21;;;;;;;35.55;27.25;;;31.80;84.80;;;;;;4871027;29;20255;-72
2021/06/09 07:33:47;;;;;;;32.22;24.27;;;33.40;81.30;;;;;;4871651;29;20193;-72
2021/06/09 07:36:23;;;;;;;34.55;25.27;;;32.90;78.60;;;;;;4857275;29;20190;-73
2021/06/09 07:38:55;;;;;;;33.03;25.02;;;33.30;79.70;;;;;;4872166;29;20191;-75
2021/06/09 07:41:25;;;;;;;29.65;22.83;;;33.70;76.80;;;;;;4864646;29;20207;-76
2021/06/09 07:43:53;;;;;;;30.88;22.83;;;34.80;73.90;;;;;;4871143;29;20205;-73
2021/06/09 07:46:26;;;;;;;30.63;23.65;;;33.20;71.00;;;;;;4873176;29;20271;-72
2021/06/09 07:48:54;;;;;;;33.53;24.42;;;33.60;71.40;;;;;;4874543;29;20361;-75
2021/06/09 07:51:21;;;;;;;35.00;24.73;;;34.30;69.60;;;;;;4856531;29;20563;-75
2021/06/09 07:53:50;;;;;;;31.95;23.70;;;34.00;68.40;;;;;;4842297;29;20674;-73
2021/06/09 07:56:17;;;;;;;33.65;23.77;;;32.70;71.10;;;;;;4870316;29;20195;-74
2021/06/09 07:58:46;;;;;;;32.28;21.70;;;34.30;71.50;;;;;;4856131;29;20186;-76
2021/06/09 08:01:11;;;;;;;30.70;23.17;;;35.20;69.80;;;;;;4874329;29;20705;-72
2021/06/09 08:03:38;;;;;;;31.65;23.10;;;34.60;66.40;;;;;;4871078;29;20218;-72
2021/06/09 08:06:05;;;;;;;36.33;22.73;;;35.80;65.30;;;;;;4870828;29;20186;-72
2021/06/09 08:08:32;;;;;;;39.42;23.13;;;36.60;61.60;;;;;;4870185;29;20201;-72
2021/06/09 08:10:58;;;;;;;32.30;23.60;;;37.50;59.40;;;;;;4868869;29;20190;-72
2021/06/09 08:13:24;;;;;;;27.67;21.33;;;38.10;57.20;;;;;;4873322;29;20278;-72
2021/06/09 08:15:52;;;;;;;27.58;21.13;;;36.80;58.30;;;;;;4869849;29;20221;-73
2021/06/09 08:18:17;;;;;;;28.35;21.02;;;37.80;57.50;;;;;;4868630;29;20567;-72
2021/06/09 08:20:52;;;;;;;27.80;21.58;;;37.60;56.90;;;;;;4858046;29;20195;-72
2021/06/09 08:23:18;;;;;;;32.92;22.73;;;36.80;56.90;;;;;;4854959;29;20214;-72
2021/06/09 08:25:44;;;;;;;32.20;21.02;;;36.50;57.90;;;;;;4870884;29;20570;-75
2021/06/09 08:28:10;;;;;;;27.05;19.00;;;37.30;58.00;;;;;;4869026;29;20214;-75
2021/06/09 08:30:35;;;;;;;31.50;19.67;;;38.50;56.10;;;;;;4873399;29;20233;-75
2021/06/09 08:33:01;;;;;;;28.48;19.58;;;39.00;54.10;;;;;;4873280;29;20190;-75
2021/06/09 08:35:28;;;;;;;24.98;18.30;;;39.30;53.70;;;;;;4843066;29;20764;-75
2021/06/09 08:37:54;;;;;;;25.85;19.08;;;37.30;54.20;;;;;;4855852;29;20218;-75
2021/06/09 08:40:19;;;;;;;26.08;16.63;;;35.30;57.90;;;;;;4864639;29;20282;-75
2021/06/09 08:42:47;;;;;;;26.30;16.02;;;35.40;58.10;;;;;;4842928;29;20206;-75
2021/06/09 08:45:13;;;;;;;25.83;18.63;;;36.60;55.50;;;;;;4874501;29;20190;-75
2021/06/09 08:47:43;;;;;;;23.17;16.20;;;37.20;56.60;;;;;;4869823;29;20184;-75
2021/06/09 08:50:12;;;;;;;24.67;16.98;;;37.20;55.60;;;;;;4857451;29;20399;-75
2021/06/09 08:52:47;;;;;;;23.77;16.27;;;37.20;55.80;;;;;;4850592;29;20235;-75
2021/06/09 08:55:14;;;;;;;25.50;16.10;;;38.00;56.00;;;;;;4873530;29;20209;-75
2021/06/09 08:57:40;;;;;;;21.02;15.30;;;36.60;55.80;;;;;;4842763;29;20206;-72
2021/06/09 09:00:17;;;;;;;26.60;15.95;;;37.00;54.70;;;;;;4868116;29;20282;-72
2021/06/09 09:02:44;;;;;;;23.20;15.38;;;38.20;55.00;;;;;;4869746;29;20231;-77
2021/06/09 09:05:11;;;;;;;23.58;15.45;;;39.40;54.20;;;;;;4902675;23;20239;-73
2021/06/09 09:07:36;;;;;;;30.25;15.52;;;39.30;51.20;;;;;;4863081;29;20286;-73
2021/06/09 09:10:05;;;;;;;27.38;16.95;;;38.30;52.70;;;;;;4879404;29;20249;-72
2021/06/09 09:12:33;;;;;;;28.63;16.35;;;37.10;55.00;;;;;;4878107;29;20347;-72
2021/06/09 09:15:00;;;;;;;51.40;23.55;;;37.90;54.40;;;;;;4864076;29;20214;-72
2021/06/09 09:17:25;;;;;;;28.90;16.67;;;38.50;54.00;;;;;;4876712;29;20206;-72
2021/06/09 09:20:02;;;;;;;20.30;15.18;;;39.30;52.90;;;;;;4875142;29;20194;-72
2021/06/09 09:22:35;;;;;;;16.75;12.50;;;39.30;52.60;;;;;;4873803;29;20208;-72
2021/06/09 09:25:14;;;;;;;22.80;14.43;;;39.50;52.50;;;;;;4857055;29;20202;-73
2021/06/09 09:27:40;;;;;;;20.45;13.80;;;38.90;54.00;;;;;;4875709;29;20583;-73
2021/06/09 09:30:11;;;;;;;18.88;13.15;;;38.60;54.30;;;;;;4872843;29;20190;-73
2021/06/09 09:32:57;;;;;;;21.45;14.00;;;37.60;55.00;;;;;;4873429;29;20187;-73
2021/06/09 09:35:27;;;;;;;20.20;14.63;;;37.70;53.40;;;;;;4874595;29;20194;-75
2021/06/09 09:38:24;;;;;;;19.42;11.98;;;37.20;52.50;;;;;;4875473;29;20188;-75
2021/06/09 09:41:00;;;;;;;18.08;13.05;;;37.50;53.80;;;;;;4871026;29;20209;-75
2021/06/09 09:43:55;;;;;;;18.73;13.23;;;36.80;55.70;;;;;;4873485;29;20242;-75
2021/06/09 09:46:31;;;;;;;19.95;12.50;;;35.40;55.30;;;;;;4863388;29;20202;-76
2021/06/09 09:49:10;;;;;;;22.67;12.50;;;36.70;53.90;;;;;;4876199;29;20645;-74
2021/06/09 09:51:44;;;;;;;18.63;13.68;;;37.30;53.90;;;;;;4875971;29;20197;-75
2021/06/09 09:54:10;;;;;;;19.40;12.93;;;37.60;51.70;;;;;;4875081;29;20604;-76
2021/06/09 09:56:37;;;;;;;18.67;13.15;;;37.20;54.30;;;;;;4878433;29;20178;-76
2021/06/09 09:59:12;;;;;;;20.23;12.13;;;37.80;53.50;;;;;;4879825;29;20236;-76
2021/06/09 10:01:41;;;;;;;19.55;12.75;;;39.00;51.70;;;;;;4879128;29;20230;-75
2021/06/09 10:04:09;;;;;;;15.85;11.88;;;38.60;51.80;;;;;;4877788;29;20663;-75
2021/06/09 10:06:45;;;;;;;16.38;11.02;;;38.70;52.00;;;;;;4876068;29;20565;-75
2021/06/09 10:09:29;;;;;;;16.67;10.75;;;37.50;52.40;;;;;;4876357;29;20197;-72
2021/06/09 10:12:09;;;;;;;15.45;10.77;;;38.20;51.20;;;;;;4880750;29;20278;-72
2021/06/09 10:14:47;;;;;;;14.27;10.65;;;38.00;53.90;;;;;;4861732;29;20246;-72
2021/06/09 10:17:16;;;;;;;17.92;10.50;;;38.10;53.30;;;;;;4878329;29;20194;-75
2021/06/09 10:19:46;;;;;;;13.82;9.88;;;39.50;50.90;;;;;;4874706;29;20188;-74
2021/06/09 10:22:13;;;;;;;15.93;11.48;;;40.10;49.70;;;;;;4879514;29;20257;-73
2021/06/09 10:24:44;;;;;;;12.48;9.77;;;38.70;50.50;;;;;;4862892;29;20207;-76
2021/06/09 10:27:11;;;;;;;17.83;12.10;;;38.90;50.70;;;;;;4878734;29;20285;-74
2021/06/09 10:29:37;;;;;;;16.17;10.63;;;36.80;52.50;;;;;;4862039;29;20189;-75
2021/06/09 10:32:06;;;;;;;15.10;9.52;;;37.10;54.60;;;;;;4861202;29;20285;-75
2021/06/09 10:34:34;;;;;;;13.90;10.73;;;37.10;52.70;;;;;;4880270;29;20282;-75
2021/06/09 10:37:03;;;;;;;13.15;10.18;;;38.40;50.70;;;;;;4860649;29;20639;-74
2021/06/09 10:39:32;;;;;;;13.07;9.60;;;39.30;50.80;;;;;;4880892;29;20191;-75
2021/06/09 10:42:16;;;;;;;13.02;9.77;;;39.30;51.00;;;;;;4879770;29;20206;-74
2021/06/09 10:44:45;;;;;;;15.13;10.32;;;40.00;49.70;;;;;;4876932;29;20242;-72
2021/06/09 10:47:19;;;;;;;10.65;8.55;;;38.90;48.60;;;;;;4878282;29;20246;-75
2021/06/09 10:49:45;;;;;;;13.98;10.38;;;38.50;50.60;;;;;;4878505;29;20225;-75
2021/06/09 10:52:12;;;;;;;17.80;12.93;;;38.50;49.90;;;;;;4879247;29;20193;-74
2021/06/09 10:54:38;;;;;;;15.18;11.57;;;38.10;50.40;;;;;;4878147;29;20221;-74
2021/06/09 10:57:08;;;;;;;16.48;12.32;;;38.30;51.90;;;;;;4877911;29;20194;-77
2021/06/09 10:59:34;;;;;;;18.52;11.35;;;37.00;52.80;;;;;;4862963;29;20658;-74
2021/06/09 11:02:01;;;;;;;17.85;13.13;;;39.00;52.80;;;;;;4861034;29;20305;-72
2021/06/09 11:04:34;;;;;;;20.20;13.30;;;38.30;51.90;;;;;;4842478;29;20241;-72
2021/06/09 11:07:00;;;;;;;16.67;13.02;;;38.10;52.00;;;;;;4859658;29;20194;-72
2021/06/09 11:09:28;;;;;;;17.02;14.02;;;38.40;52.50;;;;;;4875968;29;20215;-72
2021/06/09 11:12:12;;;;;;;16.60;14.25;;;38.50;52.80;;;;;;4877523;29;20213;-72
2021/06/09 11:14:57;;;;;;;19.40;15.27;;;38.30;53.60;;;;;;4858516;29;20259;-72
2021/06/09 11:17:36;;;;;;;17.10;13.75;;;38.30;51.40;;;;;;4872932;29;20290;-74
2021/06/09 11:20:34;;;;;;;20.75;15.77;;;37.40;52.40;;;;;;4877267;29;20653;-74
2021/06/09 11:23:08;;;;;;;18.98;14.88;;;37.60;51.60;;;;;;4856612;29;20634;-74
2021/06/09 11:25:38;;;;;;;17.00;13.35;;;37.20;52.90;;;;;;4876323;29;20222;-73
2021/06/09 11:28:13;;;;;;;20.67;15.80;;;37.10;54.40;;;;;;4879427;29;20605;-74
2021/06/09 11:30:39;;;;;;;16.60;14.20;;;36.70;52.70;;;;;;4862572;29;20202;-74
2021/06/09 11:33:09;;;;;;;20.10;14.02;;;35.20;55.90;;;;;;4878459;29;20201;-74
2021/06/09 11:35:51;;;;;;;21.77;17.55;;;37.00;54.60;;;;;;4876291;29;20187;-75
2021/06/09 11:38:28;;;;;;;20.23;15.10;;;35.60;54.90;;;;;;4877107;29;20178;-72
2021/06/09 11:41:12;;;;;;;18.25;14.73;;;35.60;55.30;;;;;;4872916;29;20201;-72
2021/06/09 11:43:40;;;;;;;17.10;13.75;;;36.80;55.30;;;;;;4877544;29;20594;-73
2021/06/09 11:46:16;;;;;;;21.13;14.77;;;36.40;56.80;;;;;;4874816;29;20646;-74
2021/06/09 11:48:58;;;;;;;17.83;15.00;;;36.50;56.60;;;;;;4877388;29;20182;-74
2021/06/09 11:51:32;;;;;;;21.40;16.67;;;36.50;58.00;;;;;;4872248;29;20251;-72
2021/06/09 11:54:23;;;;;;;18.55;15.10;;;36.40;53.80;;;;;;4861060;29;20560;-74
2021/06/09 11:56:58;;;;;;;17.75;15.77;;;35.90;57.70;;;;;;4860477;29;20217;-73
2021/06/09 11:59:30;;;;;;;21.70;15.95;;;34.40;57.40;;;;;;4874225;29;20218;-74
2021/06/09 12:01:59;;;;;;;22.48;19.35;;;33.60;58.00;;;;;;4875488;29;20243;-73
2021/06/09 12:04:26;;;;;;;25.25;17.85;;;33.40;59.90;;;;;;4875951;29;20206;-72
2021/06/09 12:07:00;;;;;;;23.50;17.85;;;33.20;59.40;;;;;;4875162;29;20710;-72
2021/06/09 12:09:31;;;;;;;22.38;15.77;;;32.30;59.70;;;;;;4872388;29;20190;-74
2021/06/09 12:12:00;;;;;;;21.63;15.38;;;31.90;61.80;;;;;;4874366;29;20241;-71
2021/06/09 12:14:27;;;;;;;19.02;14.30;;;31.80;65.00;;;;;;4874234;29;20194;-74
2021/06/09 12:16:57;;;;;;;20.25;15.27;;;31.50;63.10;;;;;;4858724;29;20209;-76
2021/06/09 12:19:31;;;;;;;21.48;15.32;;;31.30;65.20;;;;;;4877563;29;20194;-76
2021/06/09 12:22:05;;;;;;;20.92;16.02;;;31.30;65.70;;;;;;4872740;29;20218;-75
2021/06/09 12:24:32;;;;;;;22.52;16.05;;;31.40;64.00;;;;;;4876523;29;20227;-74
2021/06/09 12:27:03;;;;;;;21.88;18.15;;;30.20;64.20;;;;;;4874370;29;20214;-72
2021/06/09 12:29:31;;;;;;;21.30;15.82;;;30.00;65.20;;;;;;4877127;29;20194;-74
2021/06/09 12:31:59;;;;;;;18.55;15.48;;;30.30;67.90;;;;;;4875840;29;20202;-72
2021/06/09 12:34:31;;;;;;;20.77;15.07;;;29.70;66.90;;;;;;4874444;29;20202;-74
2021/06/09 12:37:07;;;;;;;21.42;16.27;;;30.00;67.40;;;;;;4874249;29;20202;-76
2021/06/09 12:39:40;;;;;;;20.88;14.55;;;30.20;67.80;;;;;;5134993;27;20774;-76
2021/06/09 12:42:14;;;;;;;20.25;15.40;;;30.40;66.50;;;;;;5106574;28;20191;-75
2021/06/09 12:44:49;;;;;;;20.30;16.15;;;30.00;66.40;;;;;;5108057;28;20185;-75